Time;durP1;ratioP1;P1;durP2;ratioP2;P2;SDS_P1;SDS_P2;PMS_P1;PMS_P2;Temp;Humidity;BMP_temperature;BMP_pressure;BME280_temperature;BME280_humidity;BME280_pressure;Samples;Min_cycle;Max_cycle;Signal;HPM_P1;HPM_P2
2023/05/19 04:02:40;;;;;;;2.08;1.98;;;8.30;99.90;;;;;;4981512;23;20338;-70
2023/05/19 04:05:08;;;;;;;2.35;2.20;;;8.30;99.90;;;;;;4985682;28;20219;-70
2023/05/19 04:07:34;;;;;;;1.58;1.40;;;8.40;99.90;;;;;;4990035;28;20209;-70
2023/05/19 04:10:04;;;;;;;1.67;1.58;;;8.40;99.90;;;;;;4988350;28;20251;-70
2023/05/19 04:12:30;;;;;;;2.20;1.27;;;8.50;99.90;;;;;;5008063;28;20652;-70
2023/05/19 04:14:57;;;;;;;1.73;1.63;;;8.50;99.90;;;;;;5000801;28;20207;-70
2023/05/19 04:17:25;;;;;;;1.17;1.17;;;8.60;99.90;;;;;;5008881;28;20702;-70
2023/05/19 04:19:53;;;;;;;4.22;1.90;;;8.60;99.90;;;;;;4997583;28;20212;-70
2023/05/19 04:22:20;;;;;;;2.50;2.40;;;8.70;99.90;;;;;;5002130;28;20237;-70
2023/05/19 04:24:47;;;;;;;2.40;2.40;;;8.70;99.90;;;;;;5006030;28;20213;-71
2023/05/19 04:27:15;;;;;;;1.73;1.73;;;8.70;99.90;;;;;;5003395;28;20207;-70
2023/05/19 04:29:42;;;;;;;1.23;1.20;;;8.80;99.90;;;;;;5008270;28;20683;-70
2023/05/19 04:32:09;;;;;;;2.35;1.63;;;8.90;99.90;;;;;;5005184;28;20227;-70
2023/05/19 04:34:39;;;;;;;1.13;1.13;;;9.00;99.90;;;;;;5007190;28;20207;-70
2023/05/19 04:37:08;;;;;;;1.30;1.30;;;9.10;99.90;;;;;;5007697;28;20211;-70
2023/05/19 04:39:37;;;;;;;2.58;1.75;;;9.10;99.90;;;;;;5005801;28;20689;-70
2023/05/19 04:42:04;;;;;;;1.80;1.70;;;9.20;99.90;;;;;;5008309;28;20297;-70
2023/05/19 04:44:32;;;;;;;1.35;1.33;;;9.20;99.90;;;;;;5004364;28;21023;-70
2023/05/19 04:46:59;;;;;;;4.07;2.28;;;9.20;99.90;;;;;;5001223;28;20211;-71
2023/05/19 04:49:25;;;;;;;2.85;2.05;;;9.30;99.90;;;;;;5008723;28;20209;-70
2023/05/19 04:51:52;;;;;;;2.30;2.30;;;9.30;99.90;;;;;;5003800;28;20241;-70
2023/05/19 04:54:20;;;;;;;6.32;3.97;;;9.30;99.90;;;;;;5001411;28;20211;-70
2023/05/19 04:56:47;;;;;;;2.35;1.92;;;9.60;99.90;;;;;;5002082;28;20206;-70
2023/05/19 04:59:14;;;;;;;1.73;1.73;;;9.80;99.90;;;;;;5004752;28;20211;-70
2023/05/19 05:01:41;;;;;;;3.10;2.92;;;10.20;99.90;;;;;;5004748;28;20231;-70
2023/05/19 05:04:08;;;;;;;3.00;2.58;;;10.70;99.90;;;;;;5002437;28;20207;-70
2023/05/19 05:06:37;;;;;;;1.85;1.75;;;11.10;99.90;;;;;;5003909;28;20868;-70
2023/05/19 05:09:04;;;;;;;1.63;1.63;;;11.50;99.90;;;;;;5005226;28;20215;-70
2023/05/19 05:11:32;;;;;;;7.83;2.07;;;11.60;99.90;;;;;;5011436;28;20489;-70
2023/05/19 05:14:00;;;;;;;2.00;1.95;;;11.50;99.90;;;;;;5008016;28;21150;-70
2023/05/19 05:16:27;;;;;;;4.83;1.40;;;11.30;99.90;;;;;;5005089;28;20211;-70
2023/05/19 05:18:54;;;;;;;3.22;1.55;;;11.20;99.90;;;;;;5005280;28;20476;-70
2023/05/19 05:21:22;;;;;;;1.17;1.17;;;11.00;99.90;;;;;;5011929;28;20310;-70
2023/05/19 05:23:50;;;;;;;3.80;1.30;;;10.80;99.90;;;;;;5002877;28;20219;-70
2023/05/19 05:26:18;;;;;;;7.93;1.65;;;10.80;99.90;;;;;;5005320;28;20208;-70
2023/05/19 05:28:46;;;;;;;2.75;2.25;;;10.80;99.90;;;;;;5002654;28;20207;-70
2023/05/19 05:31:13;;;;;;;5.22;2.10;;;10.90;99.90;;;;;;5007209;28;20234;-70
2023/05/19 05:33:40;;;;;;;2.38;2.28;;;10.80;99.90;;;;;;5009245;28;20222;-70
2023/05/19 05:36:08;;;;;;;9.68;2.80;;;10.80;99.90;;;;;;5010471;28;20203;-70
2023/05/19 05:38:34;;;;;;;2.40;2.15;;;10.80;99.90;;;;;;4999246;28;20255;-70
2023/05/19 05:41:01;;;;;;;2.92;2.72;;;10.80;99.90;;;;;;5006834;28;20611;-70
2023/05/19 05:43:28;;;;;;;2.67;1.70;;;10.80;99.90;;;;;;5008679;28;20207;-71
2023/05/19 05:45:56;;;;;;;1.95;1.85;;;10.80;99.90;;;;;;5001038;28;20204;-71
2023/05/19 05:48:24;;;;;;;2.72;1.70;;;10.80;99.90;;;;;;4995828;28;20212;-71
2023/05/19 05:50:52;;;;;;;2.08;1.88;;;11.10;99.90;;;;;;5010790;28;20239;-71
2023/05/19 05:53:20;;;;;;;2.25;1.70;;;11.50;99.90;;;;;;5010084;28;20203;-71
2023/05/19 05:55:47;;;;;;;7.97;2.15;;;11.70;99.90;;;;;;5009709;28;20303;-71
2023/05/19 05:58:15;;;;;;;2.20;2.00;;;11.90;99.90;;;;;;5009214;28;20671;-71
2023/05/19 06:00:42;;;;;;;3.00;1.00;;;12.40;99.90;;;;;;5005857;28;20589;-71
2023/05/19 06:03:11;;;;;;;2.33;1.67;;;12.60;99.90;;;;;;5010274;28;20546;-71
2023/05/19 06:05:37;;;;;;;1.63;1.33;;;12.90;99.90;;;;;;5008692;28;20949;-71
2023/05/19 06:08:05;;;;;;;1.20;1.20;;;13.30;99.90;;;;;;4998888;28;20527;-72
2023/05/19 06:10:32;;;;;;;1.57;1.57;;;14.20;99.90;;;;;;5010899;28;20500;-71
2023/05/19 06:12:58;;;;;;;1.70;1.60;;;15.10;99.90;;;;;;5006286;28;20878;-71
2023/05/19 06:15:25;;;;;;;1.83;1.73;;;16.10;99.90;;;;;;5006588;28;20989;-71
2023/05/19 06:17:53;;;;;;;1.07;1.07;;;16.70;99.90;;;;;;5009854;28;20493;-71
2023/05/19 06:20:21;;;;;;;1.33;1.33;;;17.30;99.90;;;;;;5006284;28;20466;-69
2023/05/19 06:22:48;;;;;;;1.00;1.00;;;17.40;99.90;;;;;;5011315;28;20466;-69
2023/05/19 06:25:14;;;;;;;1.10;1.10;;;18.10;99.90;;;;;;5008891;28;20681;-70
2023/05/19 06:27:41;;;;;;;2.77;1.10;;;18.40;99.90;;;;;;5004417;28;20470;-70
2023/05/19 06:30:09;;;;;;;2.60;1.13;;;18.60;99.90;;;;;;5007061;28;20463;-70
2023/05/19 06:32:35;;;;;;;1.40;1.30;;;18.50;99.90;;;;;;5002982;28;20486;-69
2023/05/19 06:35:02;;;;;;;0.80;0.80;;;19.10;99.90;;;;;;5003391;28;20495;-69
2023/05/19 06:37:30;;;;;;;2.27;0.87;;;19.50;99.90;;;;;;5010623;28;20480;-70
2023/05/19 06:39:57;;;;;;;1.00;1.00;;;19.70;99.90;;;;;;5008514;28;20480;-71
2023/05/19 06:42:24;;;;;;;1.20;1.20;;;20.10;99.90;;;;;;5006982;28;20485;-70
2023/05/19 06:44:51;;;;;;;3.80;0.53;;;20.60;99.40;;;;;;5002436;28;20492;-70
2023/05/19 06:47:18;;;;;;;1.40;0.83;;;20.80;97.50;;;;;;5000558;28;20473;-70
2023/05/19 06:49:45;;;;;;;0.60;0.60;;;21.20;97.30;;;;;;5010077;28;21209;-71
2023/05/19 06:52:12;;;;;;;1.07;1.07;;;21.60;96.30;;;;;;5006153;28;20622;-71
2023/05/19 06:54:40;;;;;;;2.00;0.90;;;22.00;94.80;;;;;;5008177;28;20499;-70
2023/05/19 06:57:06;;;;;;;0.50;0.50;;;22.20;94.00;;;;;;5007160;28;20826;-70
2023/05/19 06:59:33;;;;;;;1.23;0.50;;;22.60;92.60;;;;;;5006754;28;20466;-71
2023/05/19 07:02:01;;;;;;;0.70;0.60;;;22.90;91.70;;;;;;5002795;28;20494;-70
2023/05/19 07:04:27;;;;;;;0.50;0.50;;;22.80;90.80;;;;;;5001077;28;20997;-71
2023/05/19 07:06:54;;;;;;;0.70;0.70;;;22.80;90.10;;;;;;5000251;28;20474;-70
2023/05/19 07:09:21;;;;;;;0.50;0.50;;;22.60;90.30;;;;;;4997143;28;20575;-70
2023/05/19 07:11:49;;;;;;;0.40;0.40;;;22.10;87.50;;;;;;5000433;28;20495;-71
2023/05/19 07:14:16;;;;;;;0.80;0.80;;;21.50;89.70;;;;;;5006661;28;20466;-70
2023/05/19 07:16:42;;;;;;;0.57;0.57;;;21.00;89.30;;;;;;4999307;28;20467;-70
2023/05/19 07:19:09;;;;;;;0.50;0.50;;;20.80;89.40;;;;;;5010717;28;20471;-71
2023/05/19 07:21:36;;;;;;;0.53;0.53;;;21.20;90.00;;;;;;5005042;28;20539;-70
2023/05/19 07:24:03;;;;;;;0.77;0.40;;;21.50;88.10;;;;;;5006635;28;20469;-70
2023/05/19 07:26:29;;;;;;;0.80;0.80;;;21.60;89.00;;;;;;4999961;28;20906;-70
2023/05/19 07:28:57;;;;;;;0.30;0.30;;;22.10;87.50;;;;;;5002612;28;20471;-70
2023/05/19 07:31:24;;;;;;;1.47;0.70;;;22.00;85.40;;;;;;5003848;28;20493;-70
2023/05/19 07:33:51;;;;;;;0.47;0.47;;;21.90;86.20;;;;;;5006929;28;20504;-70
2023/05/19 07:36:17;;;;;;;0.67;0.67;;;22.00;86.00;;;;;;5008676;28;20473;-70
2023/05/19 07:38:45;;;;;;;0.30;0.30;;;22.10;85.00;;;;;;5012137;28;20484;-70
2023/05/19 07:41:12;;;;;;;1.60;0.50;;;22.20;85.10;;;;;;5001635;28;20985;-70
2023/05/19 07:43:39;;;;;;;0.33;0.33;;;21.70;84.80;;;;;;5010365;28;20829;-70
2023/05/19 07:46:07;;;;;;;3.30;0.70;;;21.40;85.30;;;;;;5010010;28;20477;-70
2023/05/19 07:48:33;;;;;;;0.23;0.23;;;21.70;85.30;;;;;;5010270;28;20480;-70
2023/05/19 07:51:02;;;;;;;0.50;0.50;;;21.90;85.10;;;;;;5000539;28;20836;-71
2023/05/19 07:53:28;;;;;;;0.60;0.60;;;21.70;84.90;;;;;;5010254;28;20477;-69
2023/05/19 07:55:56;;;;;;;0.53;0.53;;;21.70;85.50;;;;;;5009189;28;20526;-68
2023/05/19 07:58:22;;;;;;;0.70;0.70;;;21.80;84.70;;;;;;5003905;28;20462;-69
2023/05/19 08:00:49;;;;;;;0.57;0.57;;;21.50;85.70;;;;;;5009347;28;20497;-69
2023/05/19 08:03:17;;;;;;;0.70;0.70;;;21.60;85.60;;;;;;5008909;28;20853;-69
2023/05/19 08:05:44;;;;;;;0.40;0.40;;;21.30;85.10;;;;;;5003218;28;20469;-69
2023/05/19 08:08:11;;;;;;;1.40;0.50;;;20.60;86.80;;;;;;5007035;28;20469;-69
2023/05/19 08:10:38;;;;;;;1.47;0.40;;;20.00;87.60;;;;;;4998516;28;20531;-69
2023/05/19 08:13:05;;;;;;;1.80;0.90;;;19.80;88.80;;;;;;5008573;28;20492;-69
2023/05/19 08:15:31;;;;;;;2.83;0.70;;;19.60;89.40;;;;;;5010217;28;20819;-69
2023/05/19 08:17:58;;;;;;;0.53;0.53;;;19.80;89.50;;;;;;5002225;28;20475;-68
2023/05/19 08:20:26;;;;;;;0.80;0.80;;;19.90;89.70;;;;;;5000429;28;20471;-70
2023/05/19 08:22:53;;;;;;;0.83;0.60;;;19.40;89.30;;;;;;5001953;28;20990;-71
2023/05/19 08:25:20;;;;;;;1.73;1.63;;;19.20;90.60;;;;;;5003880;28;20870;-73
2023/05/19 08:27:46;;;;;;;0.57;0.57;;;19.10;91.10;;;;;;5001685;28;20473;-71
2023/05/19 08:30:13;;;;;;;0.60;0.60;;;18.90;91.80;;;;;;5002712;28;20479;-71
2023/05/19 08:32:40;;;;;;;3.67;0.73;;;18.60;92.20;;;;;;5005516;28;20486;-71
2023/05/19 08:35:08;;;;;;;0.63;0.47;;;18.30;92.10;;;;;;4999865;28;20505;-71
2023/05/19 08:37:37;;;;;;;0.60;0.60;;;17.80;92.70;;;;;;5004629;28;20534;-72
2023/05/19 08:40:05;;;;;;;1.30;0.53;;;17.70;93.50;;;;;;5000658;28;20475;-71
2023/05/19 08:42:32;;;;;;;1.80;0.80;;;17.70;93.40;;;;;;5006897;28;20473;-71
2023/05/19 08:44:59;;;;;;;0.90;0.90;;;17.60;93.70;;;;;;5004240;28;20461;-71
2023/05/19 08:47:26;;;;;;;0.40;0.40;;;17.50;94.70;;;;;;5009927;28;20468;-71
2023/05/19 08:50:03;;;;;;;0.80;0.80;;;17.60;94.30;;;;;;5011261;28;20462;-71
2023/05/19 08:52:41;;;;;;;0.33;0.33;;;17.60;94.70;;;;;;5010416;28;20592;-71
2023/05/19 08:55:12;;;;;;;0.73;0.73;;;17.60;94.60;;;;;;5001276;28;20465;-71
2023/05/19 08:57:40;;;;;;;1.63;0.77;;;17.70;94.90;;;;;;5010064;28;21060;-71
2023/05/19 09:00:10;;;;;;;5.83;0.80;;;17.40;95.00;;;;;;5012000;28;20998;-72
2023/05/19 09:02:38;;;;;;;1.43;0.80;;;17.30;95.80;;;;;;5008040;28;20884;-71
2023/05/19 09:05:07;;;;;;;0.97;0.97;;;17.40;95.90;;;;;;5011451;28;20465;-71
2023/05/19 09:07:37;;;;;;;2.93;0.60;;;17.40;96.10;;;;;;5008005;28;20462;-71
2023/05/19 09:10:07;;;;;;;0.83;0.83;;;17.30;96.10;;;;;;5011585;28;20520;-72
2023/05/19 09:12:34;;;;;;;0.70;0.70;;;17.50;95.90;;;;;;5006304;28;20525;-72
2023/05/19 09:15:01;;;;;;;0.93;0.70;;;17.70;95.30;;;;;;5009868;28;20477;-71
2023/05/19 09:17:28;;;;;;;0.87;0.87;;;17.70;95.60;;;;;;5010536;28;20489;-71
2023/05/19 09:19:55;;;;;;;0.70;0.70;;;17.70;95.60;;;;;;5002497;28;20834;-71
2023/05/19 09:22:22;;;;;;;0.63;0.63;;;17.70;95.30;;;;;;5007665;28;20493;-71
2023/05/19 09:24:50;;;;;;;0.70;0.70;;;17.70;96.00;;;;;;5011366;28;20477;-71
2023/05/19 09:27:22;;;;;;;1.10;1.00;;;17.80;96.10;;;;;;5010854;28;20505;-72
2023/05/19 09:29:49;;;;;;;0.70;0.60;;;17.90;94.80;;;;;;5009553;28;20466;-71
2023/05/19 09:32:24;;;;;;;0.60;0.60;;;17.80;95.50;;;;;;5010868;28;20544;-71
2023/05/19 09:34:52;;;;;;;1.40;0.80;;;17.80;95.70;;;;;;5005003;28;20557;-72
2023/05/19 09:37:22;;;;;;;1.03;0.60;;;17.90;95.70;;;;;;4998289;28;20473;-72
2023/05/19 09:39:52;;;;;;;2.73;0.80;;;18.30;94.80;;;;;;5006350;28;20475;-72
2023/05/19 09:42:24;;;;;;;3.03;0.87;;;18.30;94.10;;;;;;5006126;28;20569;-72
2023/05/19 09:44:58;;;;;;;0.40;0.40;;;18.40;93.70;;;;;;4994948;28;21493;-72
2023/05/19 09:47:26;;;;;;;1.20;1.00;;;18.50;92.90;;;;;;5012051;28;20473;-71
2023/05/19 09:49:53;;;;;;;1.40;0.30;;;18.70;93.10;;;;;;5010430;28;21041;-71
2023/05/19 09:52:21;;;;;;;0.87;0.53;;;18.70;93.00;;;;;;5006285;28;20495;-72
2023/05/19 09:54:50;;;;;;;1.80;1.00;;;18.50;92.90;;;;;;5009333;28;20922;-72
2023/05/19 09:57:17;;;;;;;0.70;0.70;;;18.30;94.00;;;;;;5006731;28;20464;-72
2023/05/19 09:59:45;;;;;;;0.30;0.30;;;18.30;93.50;;;;;;4995631;28;20491;-72
2023/05/19 10:02:19;;;;;;;1.60;0.60;;;18.00;93.80;;;;;;5002786;28;20521;-72
2023/05/19 10:04:47;;;;;;;0.97;0.97;;;17.90;93.80;;;;;;5008107;28;20465;-72
2023/05/19 10:07:16;;;;;;;0.60;0.50;;;17.80;93.70;;;;;;5004000;28;20470;-71
2023/05/19 10:09:44;;;;;;;0.70;0.70;;;17.90;94.30;;;;;;5007423;28;20556;-72
2023/05/19 10:12:13;;;;;;;0.67;0.67;;;17.90;94.00;;;;;;5003019;28;20493;-71
2023/05/19 10:14:40;;;;;;;0.37;0.37;;;18.10;93.70;;;;;;5000274;28;20474;-71
2023/05/19 10:17:09;;;;;;;1.93;1.20;;;18.20;93.40;;;;;;5005521;23;20502;-71
2023/05/19 10:19:37;;;;;;;0.97;0.70;;;18.20;93.30;;;;;;4948683;28;20484;-70
2023/05/19 10:22:05;;;;;;;0.63;0.63;;;18.30;93.20;;;;;;4948593;28;20906;-71
2023/05/19 10:24:32;;;;;;;0.80;0.80;;;18.40;92.40;;;;;;4952203;28;20464;-71
2023/05/19 10:27:03;;;;;;;0.60;0.60;;;18.50;91.80;;;;;;4949354;28;20489;-71
2023/05/19 10:29:37;;;;;;;1.40;0.83;;;18.40;91.90;;;;;;4947179;28;20484;-71
2023/05/19 10:32:08;;;;;;;0.73;0.70;;;18.60;92.80;;;;;;4946262;28;20476;-71
2023/05/19 10:35:06;;;;;;;0.67;0.67;;;18.80;91.80;;;;;;4943552;28;20963;-71
2023/05/19 10:37:39;;;;;;;0.40;0.40;;;19.10;91.80;;;;;;4938660;29;20887;-71
2023/05/19 10:40:12;;;;;;;0.83;0.83;;;19.10;91.50;;;;;;4938525;29;20544;-71
2023/05/19 10:42:49;;;;;;;1.03;1.03;;;18.90;91.60;;;;;;4943390;29;21082;-71
2023/05/19 10:45:20;;;;;;;0.50;0.40;;;18.90;91.30;;;;;;4945414;29;20942;-71
2023/05/19 10:47:47;;;;;;;1.90;0.70;;;19.00;91.90;;;;;;4950354;29;20500;-72
2023/05/19 10:50:14;;;;;;;0.60;0.60;;;19.10;91.70;;;;;;4947917;28;20484;-71
2023/05/19 10:52:41;;;;;;;0.43;0.43;;;19.00;91.70;;;;;;4949607;29;20484;-71
2023/05/19 10:55:08;;;;;;;0.80;0.80;;;19.10;92.10;;;;;;4948159;28;20473;-71
2023/05/19 10:57:35;;;;;;;1.33;0.60;;;19.20;91.30;;;;;;4938609;29;20580;-71
2023/05/19 11:00:10;;;;;;;0.93;0.60;;;19.20;90.90;;;;;;4944306;28;20481;-71
2023/05/19 11:02:40;;;;;;;2.00;1.07;;;19.30;90.70;;;;;;4945905;29;20464;-71
2023/05/19 11:05:09;;;;;;;0.50;0.50;;;19.40;90.30;;;;;;4942739;28;20480;-71
2023/05/19 11:07:36;;;;;;;0.40;0.40;;;19.30;90.70;;;;;;4948916;29;20499;-71
2023/05/19 11:10:06;;;;;;;0.53;0.53;;;19.30;90.30;;;;;;4947246;29;20492;-71
2023/05/19 11:12:41;;;;;;;0.30;0.30;;;19.30;90.70;;;;;;4950934;29;20555;-71
2023/05/19 11:15:11;;;;;;;0.60;0.60;;;19.20;90.20;;;;;;4945853;28;20505;-71
2023/05/19 11:17:40;;;;;;;0.57;0.57;;;19.10;90.10;;;;;;4945592;29;21044;-71
2023/05/19 11:20:09;;;;;;;1.90;0.50;;;18.90;90.60;;;;;;4950007;29;20485;-71
2023/05/19 11:22:37;;;;;;;1.03;1.03;;;18.80;90.70;;;;;;4945099;29;20551;-71
2023/05/19 11:25:04;;;;;;;1.50;1.50;;;18.70;91.20;;;;;;4948279;28;20488;-71
2023/05/19 11:27:32;;;;;;;0.53;0.53;;;18.70;92.10;;;;;;4948983;29;20535;-71
2023/05/19 11:30:00;;;;;;;8.03;0.97;;;18.70;90.90;;;;;;4945279;28;20465;-71
2023/05/19 11:32:28;;;;;;;0.20;0.20;;;18.90;91.00;;;;;;4947724;29;20481;-71
2023/05/19 11:34:57;;;;;;;2.77;1.00;;;19.00;90.60;;;;;;4946165;28;20550;-71
2023/05/19 11:37:24;;;;;;;0.40;0.40;;;19.20;90.80;;;;;;4941329;28;20985;-72
2023/05/19 11:39:52;;;;;;;0.60;0.60;;;19.40;90.80;;;;;;4943345;28;20985;-71
2023/05/19 11:42:19;;;;;;;0.60;0.60;;;19.30;90.30;;;;;;4939150;28;20469;-71
2023/05/19 11:44:46;;;;;;;0.43;0.43;;;19.20;90.70;;;;;;4946917;29;20784;-71
2023/05/19 11:47:13;;;;;;;1.43;1.33;;;19.30;90.40;;;;;;4934259;29;20489;-71
2023/05/19 11:49:43;;;;;;;1.80;0.60;;;19.40;90.40;;;;;;4946295;29;20479;-71
2023/05/19 11:52:11;;;;;;;0.40;0.40;;;19.50;90.50;;;;;;4938807;28;20997;-71
2023/05/19 11:54:40;;;;;;;0.57;0.57;;;19.60;90.30;;;;;;4948754;29;20477;-71
2023/05/19 11:57:08;;;;;;;0.60;0.60;;;19.70;90.10;;;;;;4943843;29;20468;-72
2023/05/19 11:59:38;;;;;;;1.27;0.50;;;19.60;90.90;;;;;;4943187;29;20219;-72
2023/05/19 12:02:17;;;;;;;0.50;0.50;;;19.60;90.80;;;;;;4936078;29;20470;-72
2023/05/19 12:04:43;;;;;;;1.07;0.80;;;19.80;90.70;;;;;;4950585;28;20469;-72
2023/05/19 12:07:14;;;;;;;0.63;0.63;;;19.80;90.60;;;;;;4938877;29;20498;-72
2023/05/19 12:09:40;;;;;;;0.40;0.40;;;19.90;90.60;;;;;;4948652;28;20531;-72
2023/05/19 12:12:07;;;;;;;0.80;0.80;;;19.90;90.20;;;;;;4948961;28;20475;-72
2023/05/19 12:14:34;;;;;;;4.20;0.67;;;19.60;90.60;;;;;;4949839;29;20952;-71
2023/05/19 12:17:11;;;;;;;0.30;0.30;;;19.50;90.90;;;;;;4945981;29;20503;-72
2023/05/19 12:19:37;;;;;;;0.60;0.60;;;19.60;90.30;;;;;;4950376;28;20504;-72
2023/05/19 12:22:06;;;;;;;0.27;0.27;;;19.50;90.00;;;;;;4955690;29;20988;-72
2023/05/19 12:24:35;;;;;;;0.50;0.50;;;19.50;89.20;;;;;;4951830;29;20488;-72
2023/05/19 12:27:07;;;;;;;3.83;1.37;;;19.40;90.40;;;;;;4954762;28;20591;-72
2023/05/19 12:29:34;;;;;;;0.70;0.70;;;19.30;90.30;;;;;;4948463;28;20513;-71
2023/05/19 12:32:01;;;;;;;0.63;0.63;;;19.30;90.60;;;;;;4949337;29;20469;-71
2023/05/19 12:34:28;;;;;;;0.70;0.70;;;19.40;91.20;;;;;;4945796;29;20488;-71
2023/05/19 12:36:55;;;;;;;1.10;0.70;;;19.40;91.10;;;;;;4955713;29;20852;-72
2023/05/19 12:39:22;;;;;;;0.67;0.67;;;19.30;91.00;;;;;;4947977;28;20486;-72
2023/05/19 12:41:50;;;;;;;0.93;0.93;;;19.00;91.30;;;;;;4952982;29;20881;-72
2023/05/19 12:44:17;;;;;;;4.97;0.83;;;19.20;91.80;;;;;;4953185;29;20473;-72
2023/05/19 12:46:44;;;;;;;0.47;0.47;;;19.40;92.10;;;;;;4952252;29;20503;-72
2023/05/19 12:49:11;;;;;;;1.07;1.07;;;19.70;91.60;;;;;;4948923;28;20963;-72
2023/05/19 12:51:38;;;;;;;0.97;0.97;;;19.90;91.60;;;;;;4952038;29;20483;-72
2023/05/19 12:54:04;;;;;;;0.63;0.63;;;19.90;91.50;;;;;;4945518;28;20488;-72
2023/05/19 12:56:31;;;;;;;0.30;0.30;;;19.90;90.60;;;;;;4951622;28;20468;-71
2023/05/19 12:59:00;;;;;;;0.57;0.57;;;19.60;90.20;;;;;;4953539;28;20497;-71
2023/05/19 13:01:29;;;;;;;1.00;1.00;;;19.30;90.30;;;;;;4951301;29;20464;-71
2023/05/19 13:03:55;;;;;;;0.87;0.70;;;19.00;90.50;;;;;;4955808;29;20952;-72
2023/05/19 13:06:22;;;;;;;0.70;0.70;;;18.80;91.40;;;;;;4953158;28;20496;-71
2023/05/19 13:08:49;;;;;;;1.03;0.53;;;18.70;91.70;;;;;;4947451;29;20503;-71
2023/05/19 13:11:16;;;;;;;0.50;0.50;;;18.60;92.00;;;;;;4955271;28;20467;-71
2023/05/19 13:13:42;;;;;;;0.93;0.90;;;18.60;92.00;;;;;;4952619;29;20499;-72
2023/05/19 13:16:10;;;;;;;0.60;0.60;;;18.50;92.30;;;;;;4953553;29;20468;-72
2023/05/19 13:18:37;;;;;;;0.80;0.80;;;18.50;92.40;;;;;;4953152;28;20496;-72
2023/05/19 13:21:04;;;;;;;2.10;0.90;;;18.50;92.50;;;;;;4950667;29;20473;-72
2023/05/19 13:23:31;;;;;;;0.87;0.87;;;18.60;92.60;;;;;;4947495;28;20472;-72
2023/05/19 13:25:58;;;;;;;0.50;0.50;;;18.70;92.70;;;;;;4951697;29;20501;-71
2023/05/19 13:28:25;;;;;;;0.60;0.60;;;18.70;92.60;;;;;;4953561;29;20972;-71
2023/05/19 13:30:51;;;;;;;0.50;0.50;;;18.70;92.60;;;;;;4948861;29;20974;-71
2023/05/19 13:33:19;;;;;;;0.40;0.40;;;18.70;92.80;;;;;;4948498;29;20499;-72
2023/05/19 13:35:46;;;;;;;0.73;0.73;;;18.80;92.50;;;;;;4952280;29;20472;-71
2023/05/19 13:38:13;;;;;;;0.80;0.80;;;18.80;92.30;;;;;;4945967;29;20499;-71
2023/05/19 13:40:40;;;;;;;2.20;1.00;;;18.80;92.90;;;;;;4951466;29;20973;-71
2023/05/19 13:43:07;;;;;;;0.93;0.93;;;18.90;92.50;;;;;;4945927;29;20465;-72
2023/05/19 13:45:34;;;;;;;0.43;0.43;;;18.90;92.00;;;;;;4956737;28;20469;-71
2023/05/19 13:48:01;;;;;;;0.97;0.60;;;19.00;91.70;;;;;;4951749;29;20543;-72
2023/05/19 13:50:29;;;;;;;0.93;0.80;;;19.10;91.90;;;;;;4945831;28;20473;-71
2023/05/19 13:52:56;;;;;;;0.90;0.50;;;19.20;91.90;;;;;;4955362;29;20999;-71
2023/05/19 13:55:25;;;;;;;0.53;0.53;;;19.30;91.80;;;;;;4956352;28;20457;-71
2023/05/19 13:57:51;;;;;;;0.53;0.53;;;19.50;92.30;;;;;;4954721;29;20549;-71
2023/05/19 14:00:20;;;;;;;0.93;0.50;;;19.60;92.70;;;;;;4954347;29;20471;-71
2023/05/19 14:02:46;;;;;;;4.10;0.87;;;19.50;93.60;;;;;;4945833;28;20465;-72
2023/05/19 14:05:13;;;;;;;0.97;0.80;;;19.30;94.40;;;;;;4954169;29;20460;-72
2023/05/19 14:07:41;;;;;;;1.90;0.70;;;19.10;94.70;;;;;;4946379;29;20485;-71
2023/05/19 14:10:09;;;;;;;0.53;0.53;;;18.90;94.60;;;;;;4935064;29;20489;-71
2023/05/19 14:12:36;;;;;;;0.80;0.80;;;18.80;94.30;;;;;;4943221;29;20916;-72
2023/05/19 14:15:03;;;;;;;0.57;0.57;;;18.70;94.70;;;;;;4942238;28;20470;-72
2023/05/19 14:17:31;;;;;;;7.03;0.90;;;18.80;94.20;;;;;;4940415;29;20495;-71
2023/05/19 14:19:58;;;;;;;0.80;0.80;;;18.90;96.00;;;;;;4948194;29;20469;-74
2023/05/19 14:22:24;;;;;;;0.73;0.60;;;18.90;96.40;;;;;;4945955;29;20461;-73
2023/05/19 14:24:52;;;;;;;0.43;0.43;;;19.00;96.50;;;;;;4948895;28;20480;-77
2023/05/19 14:27:19;;;;;;;0.60;0.60;;;19.10;95.70;;;;;;4948405;28;20493;-71
2023/05/19 14:29:47;;;;;;;0.43;0.43;;;19.30;95.40;;;;;;4948340;28;20472;-72
2023/05/19 14:32:14;;;;;;;0.80;0.80;;;19.50;95.00;;;;;;4943572;28;20540;-71
2023/05/19 14:34:41;;;;;;;0.63;0.63;;;19.60;95.70;;;;;;4941183;28;20492;-70
2023/05/19 14:37:07;;;;;;;0.83;0.83;;;19.60;96.20;;;;;;4946603;28;20485;-70
2023/05/19 14:39:34;;;;;;;0.40;0.40;;;19.20;96.40;;;;;;4935224;29;20497;-71
2023/05/19 14:42:02;;;;;;;1.07;1.00;;;19.10;96.70;;;;;;4953272;29;20475;-71
2023/05/19 14:44:33;;;;;;;0.60;0.60;;;18.90;96.60;;;;;;4953878;29;20469;-71
2023/05/19 14:47:03;;;;;;;3.50;0.80;;;18.80;97.10;;;;;;4955241;28;20518;-71
2023/05/19 14:49:30;;;;;;;0.70;0.70;;;18.90;97.40;;;;;;4949718;29;20504;-72
2023/05/19 14:51:56;;;;;;;0.50;0.50;;;18.80;97.80;;;;;;4949154;29;20465;-71
2023/05/19 14:54:23;;;;;;;0.60;0.60;;;18.60;98.40;;;;;;4941738;29;20843;-72
2023/05/19 14:56:50;;;;;;;0.67;0.67;;;18.50;98.40;;;;;;4951329;28;20468;-72
2023/05/19 14:59:18;;;;;;;0.60;0.60;;;18.60;98.70;;;;;;4946501;29;20953;-72
2023/05/19 15:01:44;;;;;;;2.93;1.10;;;18.70;99.00;;;;;;4943615;29;20472;-72
2023/05/19 15:04:11;;;;;;;1.10;1.10;;;18.60;98.40;;;;;;4951101;29;20984;-72
2023/05/19 15:06:38;;;;;;;2.63;0.90;;;18.40;99.00;;;;;;4950408;28;20472;-71
2023/05/19 15:09:05;;;;;;;1.37;0.90;;;18.40;99.20;;;;;;4944924;29;20819;-71
2023/05/19 15:11:31;;;;;;;0.77;0.77;;;18.30;99.40;;;;;;4943751;29;20479;-72
2023/05/19 15:13:58;;;;;;;1.77;1.17;;;18.30;99.90;;;;;;4943767;29;20496;-72
2023/05/19 15:16:26;;;;;;;2.53;0.80;;;18.00;99.90;;;;;;4949138;29;20479;-72
2023/05/19 15:18:53;;;;;;;0.90;0.90;;;18.00;99.90;;;;;;4942843;28;20977;-73
2023/05/19 15:21:19;;;;;;;1.17;1.17;;;18.00;99.90;;;;;;4945911;29;20792;-72
2023/05/19 15:23:46;;;;;;;1.17;1.07;;;17.90;99.90;;;;;;4947625;29;20476;-72
2023/05/19 15:26:13;;;;;;;1.33;1.33;;;18.10;99.90;;;;;;4941841;28;21168;-72
2023/05/19 15:28:40;;;;;;;1.90;0.80;;;18.50;99.90;;;;;;4942308;29;20490;-72
2023/05/19 15:31:07;;;;;;;0.80;0.80;;;18.70;99.90;;;;;;4948170;29;20465;-72
2023/05/19 15:33:35;;;;;;;1.17;1.10;;;18.90;99.90;;;;;;4948328;28;20503;-72
2023/05/19 15:36:02;;;;;;;0.70;0.70;;;19.00;99.90;;;;;;4951351;29;20472;-73
2023/05/19 15:38:29;;;;;;;0.60;0.60;;;19.00;99.20;;;;;;4953493;29;20496;-72
2023/05/19 15:40:55;;;;;;;0.60;0.60;;;18.90;98.80;;;;;;4954244;29;20469;-73
2023/05/19 15:43:22;;;;;;;2.73;0.67;;;18.90;99.40;;;;;;4942403;28;20860;-74
2023/05/19 15:45:50;;;;;;;1.33;0.80;;;18.80;99.10;;;;;;4940286;29;20474;-73
2023/05/19 15:48:18;;;;;;;1.90;1.23;;;18.80;98.10;;;;;;4941632;29;21277;-73
2023/05/19 15:50:46;;;;;;;0.53;0.53;;;18.80;96.70;;;;;;4947710;29;20531;-72
2023/05/19 15:53:12;;;;;;;1.30;0.97;;;18.90;97.00;;;;;;4943129;29;21993;-73
2023/05/19 15:55:39;;;;;;;0.43;0.43;;;18.90;97.80;;;;;;4946941;29;20480;-73
2023/05/19 15:58:07;;;;;;;0.80;0.70;;;19.00;97.70;;;;;;4948034;29;20489;-74
2023/05/19 16:00:34;;;;;;;1.10;0.70;;;19.10;97.80;;;;;;4949426;29;20475;-73
2023/05/19 16:03:01;;;;;;;1.60;0.60;;;19.10;98.30;;;;;;4942777;29;20779;-73
2023/05/19 16:05:27;;;;;;;2.50;0.90;;;19.10;98.30;;;;;;4948400;28;20491;-73
2023/05/19 16:07:56;;;;;;;1.60;0.80;;;19.00;98.50;;;;;;4942886;29;20490;-73
2023/05/19 16:10:22;;;;;;;2.80;1.80;;;19.00;98.80;;;;;;4946559;29;20468;-73
2023/05/19 16:12:49;;;;;;;0.53;0.53;;;18.90;99.00;;;;;;4943231;29;20476;-73
2023/05/19 16:15:16;;;;;;;0.60;0.60;;;18.80;99.40;;;;;;4938405;29;20545;-73
2023/05/19 16:17:43;;;;;;;0.63;0.63;;;18.70;99.90;;;;;;4970095;23;20519;-72
2023/05/19 16:20:10;;;;;;;2.10;0.67;;;18.70;99.90;;;;;;4968630;28;20464;-73
2023/05/19 16:22:37;;;;;;;0.70;0.70;;;18.70;99.90;;;;;;4965708;28;20479;-72
2023/05/19 16:25:07;;;;;;;1.10;1.10;;;18.80;99.90;;;;;;4955181;28;20476;-72
2023/05/19 16:27:37;;;;;;;1.50;0.60;;;18.70;99.90;;;;;;4962832;28;22221;-72
2023/05/19 16:30:04;;;;;;;0.63;0.63;;;18.70;99.90;;;;;;4963304;28;20479;-72
2023/05/19 16:32:32;;;;;;;0.77;0.53;;;18.70;99.90;;;;;;4965275;28;20474;-71
2023/05/19 16:34:59;;;;;;;0.37;0.37;;;18.60;99.90;;;;;;4966341;28;20479;-72
2023/05/19 16:37:25;;;;;;;0.93;0.93;;;18.60;99.90;;;;;;4970558;28;20473;-71
2023/05/19 16:39:52;;;;;;;0.70;0.70;;;18.60;99.90;;;;;;4963395;28;20856;-74
2023/05/19 16:42:20;;;;;;;0.60;0.60;;;18.50;99.60;;;;;;4959421;28;20472;-71
2023/05/19 16:44:47;;;;;;;3.50;0.60;;;18.50;99.80;;;;;;4964568;28;20475;-73
2023/05/19 16:47:13;;;;;;;1.00;1.00;;;18.50;99.90;;;;;;4966115;28;20472;-73
2023/05/19 16:49:40;;;;;;;0.30;0.30;;;18.60;99.90;;;;;;4968340;28;20472;-73
2023/05/19 16:52:07;;;;;;;0.87;0.57;;;18.50;99.90;;;;;;4964757;28;20475;-73